createdAt,value
2022-11-16T04:00:31.589Z,11.70
2022-11-16T04:03:05.926Z,11.60
2022-11-16T04:05:51.278Z,11.70
2022-11-16T04:08:51.258Z,11.80
2022-11-16T04:11:39.745Z,11.80
2022-11-16T04:14:31.802Z,11.90
2022-11-16T04:17:18.413Z,11.90
2022-11-16T04:20:03.804Z,11.80
2022-11-16T04:22:53.205Z,11.70
2022-11-16T04:25:26.107Z,11.70
2022-11-16T04:28:12.811Z,11.70
2022-11-16T04:31:01.734Z,11.80
2022-11-16T04:33:49.656Z,11.80
2022-11-16T04:36:36.613Z,11.80
2022-11-16T04:39:05.113Z,11.80
2022-11-16T04:41:50.805Z,11.80
2022-11-16T04:44:19.948Z,11.80
2022-11-16T04:47:06.004Z,11.90
2022-11-16T04:49:36.722Z,11.90
2022-11-16T04:52:04.770Z,11.90
2022-11-16T04:54:34.393Z,11.90
2022-11-16T04:57:03.875Z,11.90
2022-11-16T04:59:31.742Z,11.80
2022-11-16T05:02:11.569Z,11.80
2022-11-16T05:04:47.893Z,11.90
2022-11-16T05:07:16.286Z,11.80
2022-11-16T05:09:48.433Z,11.90
2022-11-16T05:12:19.592Z,11.90
2022-11-16T05:14:49.724Z,11.80
2022-11-16T05:17:19.476Z,11.90
2022-11-16T05:20:07.150Z,11.90
2022-11-16T05:22:40.695Z,11.90
2022-11-16T05:25:10.517Z,11.90
2022-11-16T05:27:39.176Z,11.90
2022-11-16T05:30:08.943Z,11.90
2022-11-16T05:32:36.832Z,11.90
2022-11-16T05:35:07.690Z,11.80
2022-11-16T05:37:35.940Z,11.90
2022-11-16T05:40:03.981Z,11.90
2022-11-16T05:42:41.921Z,11.90
2022-11-16T05:45:10.804Z,11.90
2022-11-16T05:47:38.825Z,11.90
2022-11-16T05:50:10.054Z,11.90
2022-11-16T05:52:41.478Z,11.90
2022-11-16T05:55:12.154Z,11.90
2022-11-16T05:57:44.825Z,11.90
2022-11-16T06:00:13.945Z,11.80
2022-11-16T06:02:49.198Z,11.90
2022-11-16T06:05:26.394Z,11.90
2022-11-16T06:07:55.634Z,11.90
2022-11-16T06:10:24.494Z,11.90
2022-11-16T06:12:54.526Z,11.90
2022-11-16T06:15:22.702Z,11.90
2022-11-16T06:17:50.582Z,11.90
2022-11-16T06:20:18.765Z,11.90
2022-11-16T06:22:49.401Z,11.90
2022-11-16T06:25:17.355Z,11.80
2022-11-16T06:27:45.709Z,11.80
2022-11-16T06:30:17.574Z,11.80
2022-11-16T06:32:45.882Z,11.80
2022-11-16T06:35:13.780Z,11.80
2022-11-16T06:37:41.764Z,11.80
2022-11-16T06:40:12.366Z,11.80
2022-11-16T06:42:43.656Z,11.70
2022-11-16T06:45:14.054Z,11.60
2022-11-16T06:47:47.590Z,11.50
2022-11-16T06:50:19.090Z,11.50
2022-11-16T06:52:48.551Z,11.50
2022-11-16T06:55:18.768Z,11.50
2022-11-16T06:57:55.240Z,11.50
2022-11-16T07:00:25.373Z,11.50
2022-11-16T07:02:53.245Z,11.30
2022-11-16T07:05:21.240Z,11.20
2022-11-16T07:07:49.310Z,11.20
2022-11-16T07:10:18.926Z,11.20
2022-11-16T07:12:47.212Z,11.20
2022-11-16T07:15:16.513Z,11.10
2022-11-16T07:17:47.043Z,11.10
2022-11-16T07:20:15.126Z,11.10
2022-11-16T07:22:44.546Z,11.00
2022-11-16T07:25:15.518Z,11.00
2022-11-16T07:27:44.829Z,11.00
2022-11-16T07:30:13.983Z,11.10
2022-11-16T07:32:50.649Z,11.10
2022-11-16T07:35:24.824Z,11.10
2022-11-16T07:37:52.729Z,11.20
2022-11-16T07:40:21.642Z,11.20
2022-11-16T07:42:51.656Z,11.20
2022-11-16T07:45:29.838Z,11.20
2022-11-16T07:48:04.128Z,11.20
2022-11-16T07:50:50.493Z,11.20
2022-11-16T07:53:19.942Z,11.20
2022-11-16T07:55:54.267Z,11.20
2022-11-16T07:58:25.319Z,11.30
2022-11-16T08:00:55.522Z,11.30
2022-11-16T08:03:24.804Z,11.30
2022-11-16T08:06:00.292Z,11.10
2022-11-16T08:08:28.435Z,11.10
2022-11-16T08:11:01.462Z,11.10
2022-11-16T08:13:33.914Z,10.90
2022-11-16T08:16:02.978Z,10.80
2022-11-16T08:18:33.133Z,10.70
2022-11-16T08:21:02.696Z,10.60
2022-11-16T08:23:32.140Z,10.50
2022-11-16T08:26:01.253Z,10.50
2022-11-16T08:28:31.967Z,10.40
2022-11-16T08:31:00.829Z,10.50
2022-11-16T08:33:30.520Z,10.50
2022-11-16T08:36:09.481Z,10.50
2022-11-16T08:38:41.277Z,10.60
2022-11-16T08:41:09.484Z,10.50
2022-11-16T08:43:40.368Z,10.50
2022-11-16T08:46:09.896Z,10.60
2022-11-16T08:48:40.480Z,10.70
2022-11-16T08:51:17.485Z,10.80
2022-11-16T08:53:50.904Z,10.80
2022-11-16T08:56:19.677Z,10.90
2022-11-16T08:58:53.768Z,10.90
2022-11-16T09:01:25.820Z,10.90
2022-11-16T09:03:54.613Z,11.00
2022-11-16T09:06:24.060Z,11.00
2022-11-16T09:08:52.026Z,11.10
2022-11-16T09:11:22.162Z,11.10
2022-11-16T09:13:54.216Z,11.10
2022-11-16T09:16:23.214Z,11.10
2022-11-16T09:18:52.451Z,11.10
2022-11-16T09:21:21.659Z,11.20
2022-11-16T09:23:50.046Z,11.20
2022-11-16T09:26:21.105Z,11.30
2022-11-16T09:28:55.131Z,11.30
2022-11-16T09:31:24.050Z,11.20
2022-11-16T09:33:52.195Z,11.10
2022-11-16T09:36:20.560Z,11.20
2022-11-16T09:39:28.823Z,11.20
2022-11-16T09:41:51.079Z,11.30
2022-11-16T09:44:49.422Z,11.30
2022-11-16T09:47:21.580Z,11.30
2022-11-16T09:49:56.850Z,11.30
2022-11-16T09:52:32.242Z,11.30
2022-11-16T09:55:04.849Z,11.30
2022-11-16T09:57:37.182Z,11.30
2022-11-16T10:00:16.642Z,11.40
2022-11-16T10:02:49.167Z,11.40
2022-11-16T10:05:22.381Z,11.40
2022-11-16T10:07:54.962Z,11.40
2022-11-16T10:10:37.634Z,11.60
2022-11-16T10:13:15.538Z,11.60
2022-11-16T10:15:54.633Z,11.70
2022-11-16T10:18:35.363Z,11.80
2022-11-16T10:21:26.574Z,11.90
2022-11-16T10:24:13.970Z,11.90
2022-11-16T10:26:49.119Z,12.00
2022-11-16T10:29:30.251Z,11.90
2022-11-16T10:32:19.637Z,11.90
2022-11-16T10:34:53.258Z,12.00
2022-11-16T10:37:22.171Z,12.00
2022-11-16T10:39:53.084Z,12.00
2022-11-16T10:42:26.121Z,12.00
2022-11-16T10:45:00.690Z,12.10
2022-11-16T10:47:38.446Z,12.30
2022-11-16T10:50:35.781Z,12.30
2022-11-16T10:53:04.149Z,12.40
2022-11-16T10:55:32.085Z,12.40
2022-11-16T10:58:01.959Z,12.40
2022-11-16T11:00:42.920Z,12.50
2022-11-16T11:03:12.597Z,12.50
2022-11-16T11:05:50.225Z,12.50
2022-11-16T11:08:27.728Z,12.60
2022-11-16T11:11:01.655Z,12.80
2022-11-16T11:13:29.780Z,12.80
2022-11-16T11:16:17.007Z,12.60
2022-11-16T11:18:46.268Z,12.60
2022-11-16T11:21:18.994Z,12.50
2022-11-16T11:23:50.689Z,12.50
2022-11-16T11:26:36.532Z,12.50
2022-11-16T11:29:17.634Z,12.50
2022-11-16T11:31:48.379Z,12.50
2022-11-16T11:34:21.701Z,12.60
2022-11-16T11:36:53.700Z,12.60
2022-11-16T11:39:31.788Z,12.70
2022-11-16T11:42:06.050Z,12.70
2022-11-16T11:44:42.333Z,12.90
2022-11-16T11:50:18.147Z,13.00
2022-11-16T11:52:57.382Z,13.20
2022-11-16T11:55:25.282Z,13.20
2022-11-16T11:57:54.838Z,13.20
2022-11-16T12:00:23.770Z,13.20
2022-11-16T12:03:14.625Z,13.20
2022-11-16T12:05:58.395Z,13.10
2022-11-16T12:08:44.261Z,13.10
2022-11-16T12:11:21.868Z,13.10
2022-11-16T12:14:10.625Z,13.00
2022-11-16T12:16:47.173Z,12.90
2022-11-16T12:19:29.639Z,12.90
2022-11-16T12:22:10.276Z,12.90
2022-11-16T12:24:54.320Z,13.10
2022-11-16T12:27:29.848Z,13.20
2022-11-16T12:30:04.319Z,13.30
2022-11-16T12:33:00.768Z,13.40
2022-11-16T12:35:48.475Z,13.40
2022-11-16T12:38:36.272Z,13.40
2022-11-16T12:41:17.622Z,13.40
2022-11-16T12:43:54.025Z,13.40
2022-11-16T12:46:29.215Z,13.40
2022-11-16T12:49:14.860Z,13.50
2022-11-16T12:51:56.868Z,13.50
2022-11-16T12:54:52.461Z,13.60
2022-11-16T12:57:40.660Z,13.50
2022-11-16T13:00:10.692Z,13.50
2022-11-16T13:02:56.033Z,13.60
2022-11-16T13:05:27.688Z,13.60
2022-11-16T13:08:03.437Z,13.60
2022-11-16T13:10:36.073Z,13.70
2022-11-16T13:16:00.520Z,13.60
2022-11-16T13:18:31.511Z,13.60
2022-11-16T13:21:06.550Z,13.70
2022-11-16T13:23:46.772Z,13.80
2022-11-16T13:26:23.376Z,13.90
2022-11-16T13:28:58.415Z,13.90
2022-11-16T13:31:34.394Z,13.90
2022-11-16T13:34:06.516Z,13.80
2022-11-16T13:36:46.294Z,13.80
2022-11-16T13:39:21.888Z,13.80
2022-11-16T13:42:05.854Z,13.80
2022-11-16T13:44:34.526Z,13.80
2022-11-16T13:47:05.320Z,13.80
2022-11-16T13:49:40.820Z,13.80
2022-11-16T13:52:23.603Z,13.80
2022-11-16T13:54:54.725Z,13.80
2022-11-16T13:57:28.001Z,13.80
2022-11-16T14:00:10.988Z,13.80
2022-11-16T14:02:40.702Z,13.70
2022-11-16T14:05:16.078Z,13.60
2022-11-16T14:07:47.265Z,13.60
2022-11-16T14:11:01.088Z,13.60
2022-11-16T14:13:42.195Z,13.50
2022-11-16T14:16:45.546Z,13.40
2022-11-16T14:19:54.414Z,13.40
2022-11-16T14:22:52.009Z,13.40
2022-11-16T14:25:38.284Z,13.40
2022-11-16T14:28:24.856Z,13.40
2022-11-16T14:31:05.088Z,13.30
2022-11-16T14:33:35.905Z,13.30
2022-11-16T14:36:07.108Z,13.20
2022-11-16T14:38:38.379Z,13.30
2022-11-16T14:41:12.341Z,13.20
2022-11-16T14:43:42.400Z,13.20
2022-11-16T14:46:22.524Z,13.10
2022-11-16T14:48:51.165Z,13.10
2022-11-16T14:51:23.576Z,13.00
2022-11-16T14:53:56.502Z,12.90
2022-11-16T14:56:24.553Z,12.80
2022-11-16T14:58:54.342Z,12.60
2022-11-16T15:01:25.554Z,12.40
2022-11-16T15:03:58.243Z,12.20
2022-11-16T15:06:27.407Z,12.00
2022-11-16T15:08:59.320Z,11.80
2022-11-16T15:11:49.768Z,11.80
2022-11-16T15:14:20.974Z,11.70
2022-11-16T15:16:55.366Z,11.80
2022-11-16T15:19:24.173Z,11.80
2022-11-16T15:21:53.805Z,11.80
2022-11-16T15:24:31.007Z,11.90
2022-11-16T15:27:10.419Z,11.90
2022-11-16T15:29:38.494Z,11.90
2022-11-16T15:32:13.637Z,11.80
2022-11-16T15:34:41.548Z,11.80
2022-11-16T15:37:12.314Z,11.80
2022-11-16T15:39:40.909Z,11.90
2022-11-16T15:42:14.654Z,11.80
2022-11-16T15:44:43.685Z,11.80
2022-11-16T15:47:14.029Z,11.80
2022-11-16T15:49:44.012Z,11.80
2022-11-16T15:52:11.949Z,11.80
2022-11-16T15:54:53.875Z,11.80
2022-11-16T15:57:23.896Z,11.90
2022-11-16T15:59:54.888Z,11.80
2022-11-16T16:02:27.999Z,11.70
2022-11-16T16:04:56.037Z,11.70
2022-11-16T16:07:37.106Z,11.80
2022-11-16T16:10:23.439Z,11.90
2022-11-16T16:12:52.541Z,11.90
2022-11-16T16:15:25.738Z,11.80
2022-11-16T16:17:55.385Z,11.80
2022-11-16T16:20:26.037Z,11.80
2022-11-16T16:22:54.216Z,11.90
2022-11-16T16:25:30.863Z,11.90
2022-11-16T16:27:59.052Z,11.90
2022-11-16T16:30:28.720Z,11.90
2022-11-16T16:32:58.026Z,11.90
2022-11-16T16:35:27.064Z,12.00
2022-11-16T16:37:59.511Z,12.00
2022-11-16T16:40:27.575Z,11.90
2022-11-16T16:42:56.721Z,12.00
2022-11-16T16:45:33.621Z,12.00
2022-11-16T16:48:02.826Z,11.90
2022-11-16T16:50:30.672Z,11.90
2022-11-16T16:52:58.622Z,11.90
2022-11-16T16:55:26.504Z,12.00
2022-11-16T16:57:56.609Z,12.00
2022-11-16T17:00:25.021Z,11.90
2022-11-16T17:02:52.911Z,11.90
2022-11-16T17:05:22.121Z,12.00
2022-11-16T17:07:49.978Z,12.00
2022-11-16T17:10:18.589Z,12.00
2022-11-16T17:12:47.033Z,12.00
2022-11-16T17:15:19.223Z,11.90
2022-11-16T17:17:47.428Z,12.00
2022-11-16T17:20:16.107Z,11.90
2022-11-16T17:22:45.906Z,11.80
2022-11-16T17:25:14.833Z,11.80
2022-11-16T17:27:42.682Z,11.70
2022-11-16T17:30:11.860Z,11.70
2022-11-16T17:32:39.717Z,11.70
2022-11-16T17:35:08.021Z,11.60
2022-11-16T17:37:35.928Z,11.60
2022-11-16T17:40:05.700Z,11.60
2022-11-16T17:42:35.471Z,11.60
2022-11-16T17:45:03.792Z,11.70
2022-11-16T17:47:33.284Z,11.70
2022-11-16T17:50:01.733Z,11.70
2022-11-16T17:52:29.595Z,11.70
2022-11-16T17:54:57.535Z,11.70
2022-11-16T17:57:26.753Z,11.60
2022-11-16T17:59:54.636Z,11.70
2022-11-16T18:02:22.477Z,11.70
2022-11-16T18:04:51.432Z,11.70
2022-11-16T18:07:19.545Z,11.70
2022-11-16T18:09:47.421Z,11.70
2022-11-16T18:12:15.282Z,11.70
2022-11-16T18:15:06.479Z,11.70
2022-11-16T18:17:34.681Z,11.70
2022-11-16T18:20:02.770Z,11.80
2022-11-16T18:22:30.736Z,11.80
2022-11-16T18:24:58.640Z,11.70
2022-11-16T18:27:26.679Z,11.70
2022-11-16T18:29:56.198Z,11.70
2022-11-16T18:32:24.237Z,11.70
2022-11-16T18:34:52.983Z,11.60
2022-11-16T18:37:20.798Z,11.60
2022-11-16T18:39:48.762Z,11.60
2022-11-16T18:42:16.568Z,11.60
2022-11-16T18:44:44.539Z,11.60
2022-11-16T18:47:13.689Z,11.60
2022-11-16T18:49:41.521Z,11.60
2022-11-16T18:52:09.393Z,11.60
2022-11-16T18:54:37.268Z,11.60
2022-11-16T18:57:05.170Z,11.50
2022-11-16T18:59:33.043Z,11.50
2022-11-16T19:02:00.957Z,11.50
2022-11-16T19:04:30.188Z,11.50
2022-11-16T19:06:58.037Z,11.60
2022-11-16T19:09:25.948Z,11.60
2022-11-16T19:11:53.927Z,11.60
2022-11-16T19:14:21.818Z,11.60
2022-11-16T19:16:55.706Z,11.60
2022-11-16T19:19:27.558Z,11.50
2022-11-16T19:21:57.040Z,11.60
2022-11-16T19:24:24.913Z,11.50
2022-11-16T19:26:53.153Z,11.50
2022-11-16T19:29:21.033Z,11.50
2022-11-16T19:31:48.850Z,11.50
2022-11-16T19:34:16.693Z,11.50
2022-11-16T19:36:44.645Z,11.50
2022-11-16T19:39:13.867Z,11.50
2022-11-16T19:41:41.789Z,11.50
2022-11-16T19:44:09.778Z,11.50
2022-11-16T19:46:37.625Z,11.50
2022-11-16T19:49:05.529Z,11.50
2022-11-16T19:51:34.599Z,11.50
2022-11-16T19:54:03.557Z,11.40
2022-11-16T19:56:32.911Z,11.50
2022-11-16T19:59:01.708Z,11.50
2022-11-16T20:01:30.005Z,11.50
2022-11-16T20:03:59.700Z,11.50
2022-11-16T20:06:30.061Z,11.50
2022-11-16T20:09:00.640Z,11.50
2022-11-16T20:11:30.238Z,11.50
2022-11-16T20:14:00.041Z,11.50
2022-11-16T20:16:35.437Z,11.50
2022-11-16T20:19:06.452Z,11.40
2022-11-16T20:21:36.794Z,11.40
2022-11-16T20:24:07.242Z,11.40
2022-11-16T20:26:36.731Z,11.40
2022-11-16T20:29:06.082Z,11.40
2022-11-16T20:31:34.617Z,11.50
2022-11-16T20:34:04.257Z,11.40
2022-11-16T20:36:33.976Z,11.40
2022-11-16T20:39:02.317Z,11.30
2022-11-16T20:41:31.255Z,11.30
2022-11-16T20:44:00.998Z,11.40
2022-11-16T20:46:31.221Z,11.30
2022-11-16T20:49:01.808Z,11.30
2022-11-16T20:51:30.758Z,11.30
2022-11-16T20:53:59.278Z,11.30
2022-11-16T20:56:27.295Z,11.30
2022-11-16T20:58:55.493Z,11.30
2022-11-16T21:01:28.510Z,11.20
2022-11-16T21:03:58.837Z,11.20
2022-11-16T21:06:27.318Z,11.20
2022-11-16T21:08:56.149Z,11.10
2022-11-16T21:11:25.687Z,11.10
2022-11-16T21:14:11.563Z,11.10
2022-11-16T21:16:39.839Z,11.10
2022-11-16T21:19:09.155Z,11.00
2022-11-16T21:21:37.973Z,11.10
2022-11-16T21:24:06.243Z,11.10
2022-11-16T21:26:35.354Z,11.10
2022-11-16T21:29:03.241Z,11.10
2022-11-16T21:31:32.629Z,11.10
2022-11-16T21:34:01.497Z,11.10
2022-11-16T21:36:32.204Z,11.20
2022-11-16T21:39:01.020Z,11.10
2022-11-16T21:41:29.301Z,11.10
2022-11-16T21:43:57.417Z,11.20
2022-11-16T21:46:26.680Z,11.20
2022-11-16T21:48:56.622Z,11.10
2022-11-16T21:51:27.133Z,11.20
2022-11-16T21:53:56.614Z,11.20
2022-11-16T21:56:26.677Z,11.20
2022-11-16T21:58:54.733Z,11.20
2022-11-16T22:01:23.709Z,11.20
2022-11-16T22:04:05.590Z,11.10
2022-11-16T22:06:51.005Z,11.10
2022-11-16T22:09:20.255Z,11.10
2022-11-16T22:11:48.163Z,11.20
2022-11-16T22:14:16.070Z,11.20
2022-11-16T22:16:43.980Z,11.20
2022-11-16T22:19:11.835Z,11.10
2022-11-16T22:21:39.720Z,11.20
2022-11-16T22:24:08.345Z,11.20
2022-11-16T22:26:39.805Z,11.20
2022-11-16T22:29:07.670Z,11.20
